sensor_id;sensor_type;location;lat;lon;timestamp;P1;durP1;ratioP1;P2;durP2;ratioP2
5175;SDS011;2607;50.934;6.934;2023-06-10T00:01:35;10.80;;;8.33;;
5175;SDS011;2607;50.934;6.934;2023-06-10T00:04:01;8.13;;;7.53;;
5175;SDS011;2607;50.934;6.934;2023-06-10T00:06:27;11.50;;;9.47;;
5175;SDS011;2607;50.934;6.934;2023-06-10T00:09:00;9.30;;;8.60;;
5175;SDS011;2607;50.934;6.934;2023-06-10T00:11:27;10.00;;;9.10;;
5175;SDS011;2607;50.934;6.934;2023-06-10T00:13:53;10.03;;;9.23;;
5175;SDS011;2607;50.934;6.934;2023-06-10T00:16:18;11.60;;;8.27;;
5175;SDS011;2607;50.934;6.934;2023-06-10T00:18:44;9.77;;;8.77;;
5175;SDS011;2607;50.934;6.934;2023-06-10T00:21:10;13.63;;;9.30;;
5175;SDS011;2607;50.934;6.934;2023-06-10T00:23:38;10.83;;;9.73;;
5175;SDS011;2607;50.934;6.934;2023-06-10T00:26:03;9.23;;;8.53;;
5175;SDS011;2607;50.934;6.934;2023-06-10T00:28:29;14.50;;;9.00;;
5175;SDS011;2607;50.934;6.934;2023-06-10T00:30:55;9.07;;;8.37;;
5175;SDS011;2607;50.934;6.934;2023-06-10T00:33:22;10.23;;;9.17;;
5175;SDS011;2607;50.934;6.934;2023-06-10T00:35:48;9.80;;;8.80;;
5175;SDS011;2607;50.934;6.934;2023-06-10T00:38:14;9.83;;;8.43;;
5175;SDS011;2607;50.934;6.934;2023-06-10T00:40:42;9.73;;;8.73;;
5175;SDS011;2607;50.934;6.934;2023-06-10T00:43:08;9.90;;;8.90;;
5175;SDS011;2607;50.934;6.934;2023-06-10T00:45:34;11.40;;;9.20;;
5175;SDS011;2607;50.934;6.934;2023-06-10T00:48:00;9.53;;;8.73;;
5175;SDS011;2607;50.934;6.934;2023-06-10T00:50:26;9.80;;;8.70;;
5175;SDS011;2607;50.934;6.934;2023-06-10T00:52:53;9.53;;;8.70;;
5175;SDS011;2607;50.934;6.934;2023-06-10T00:55:19;9.43;;;8.40;;
5175;SDS011;2607;50.934;6.934;2023-06-10T00:57:45;9.33;;;8.00;;
5175;SDS011;2607;50.934;6.934;2023-06-10T01:00:13;14.97;;;8.80;;
5175;SDS011;2607;50.934;6.934;2023-06-10T01:02:40;10.40;;;8.37;;
5175;SDS011;2607;50.934;6.934;2023-06-10T01:05:06;9.50;;;8.50;;
5175;SDS011;2607;50.934;6.934;2023-06-10T01:07:36;9.63;;;8.90;;
5175;SDS011;2607;50.934;6.934;2023-06-10T01:13:02;9.77;;;7.93;;
5175;SDS011;2607;50.934;6.934;2023-06-10T01:15:32;9.93;;;9.10;;
5175;SDS011;2607;50.934;6.934;2023-06-10T01:17:59;9.40;;;8.57;;
5175;SDS011;2607;50.934;6.934;2023-06-10T01:20:26;10.63;;;9.53;;
5175;SDS011;2607;50.934;6.934;2023-06-10T01:22:54;11.53;;;9.50;;
5175;SDS011;2607;50.934;6.934;2023-06-10T01:25:21;10.17;;;9.00;;
5175;SDS011;2607;50.934;6.934;2023-06-10T01:28:15;10.00;;;9.00;;
5175;SDS011;2607;50.934;6.934;2023-06-10T01:33:35;10.00;;;9.10;;
5175;SDS011;2607;50.934;6.934;2023-06-10T01:36:04;10.50;;;9.40;;
5175;SDS011;2607;50.934;6.934;2023-06-10T01:38:31;13.13;;;9.30;;
5175;SDS011;2607;50.934;6.934;2023-06-10T01:41:01;22.37;;;18.70;;
5175;SDS011;2607;50.934;6.934;2023-06-10T01:43:28;14.63;;;11.80;;
5175;SDS011;2607;50.934;6.934;2023-06-10T01:45:53;10.57;;;9.63;;
5175;SDS011;2607;50.934;6.934;2023-06-10T01:48:19;9.50;;;8.70;;
5175;SDS011;2607;50.934;6.934;2023-06-10T01:50:44;9.97;;;9.17;;
5175;SDS011;2607;50.934;6.934;2023-06-10T01:53:10;10.10;;;9.20;;
5175;SDS011;2607;50.934;6.934;2023-06-10T01:55:36;13.50;;;10.03;;
5175;SDS011;2607;50.934;6.934;2023-06-10T01:58:01;11.00;;;10.03;;
5175;SDS011;2607;50.934;6.934;2023-06-10T02:00:27;9.50;;;8.60;;
5175;SDS011;2607;50.934;6.934;2023-06-10T02:02:53;9.60;;;8.70;;
5175;SDS011;2607;50.934;6.934;2023-06-10T02:05:18;11.23;;;9.00;;
5175;SDS011;2607;50.934;6.934;2023-06-10T02:07:44;10.83;;;8.80;;
5175;SDS011;2607;50.934;6.934;2023-06-10T02:10:10;9.97;;;8.93;;
5175;SDS011;2607;50.934;6.934;2023-06-10T02:12:35;10.20;;;9.33;;
5175;SDS011;2607;50.934;6.934;2023-06-10T02:15:01;11.97;;;9.20;;
5175;SDS011;2607;50.934;6.934;2023-06-10T02:17:26;10.30;;;9.40;;
5175;SDS011;2607;50.934;6.934;2023-06-10T02:19:53;9.60;;;8.70;;
5175;SDS011;2607;50.934;6.934;2023-06-10T02:22:21;10.30;;;9.30;;
5175;SDS011;2607;50.934;6.934;2023-06-10T02:24:49;9.43;;;8.67;;
5175;SDS011;2607;50.934;6.934;2023-06-10T02:27:18;9.90;;;8.97;;
5175;SDS011;2607;50.934;6.934;2023-06-10T02:29:44;9.27;;;8.47;;
5175;SDS011;2607;50.934;6.934;2023-06-10T02:32:10;10.50;;;9.50;;
5175;SDS011;2607;50.934;6.934;2023-06-10T02:34:35;10.07;;;9.23;;
5175;SDS011;2607;50.934;6.934;2023-06-10T02:37:01;9.33;;;8.63;;
5175;SDS011;2607;50.934;6.934;2023-06-10T02:39:27;10.47;;;9.57;;
5175;SDS011;2607;50.934;6.934;2023-06-10T02:41:53;9.57;;;8.50;;
5175;SDS011;2607;50.934;6.934;2023-06-10T02:44:18;10.43;;;8.80;;
5175;SDS011;2607;50.934;6.934;2023-06-10T02:46:45;10.17;;;9.27;;
5175;SDS011;2607;50.934;6.934;2023-06-10T02:49:11;11.60;;;9.53;;
5175;SDS011;2607;50.934;6.934;2023-06-10T02:51:37;9.93;;;8.97;;
5175;SDS011;2607;50.934;6.934;2023-06-10T02:54:03;10.03;;;9.17;;
5175;SDS011;2607;50.934;6.934;2023-06-10T02:56:29;16.33;;;9.90;;
5175;SDS011;2607;50.934;6.934;2023-06-10T02:58:56;11.40;;;10.23;;
5175;SDS011;2607;50.934;6.934;2023-06-10T03:01:22;11.03;;;9.37;;
5175;SDS011;2607;50.934;6.934;2023-06-10T03:03:48;10.73;;;9.67;;
5175;SDS011;2607;50.934;6.934;2023-06-10T03:06:15;10.53;;;9.50;;
5175;SDS011;2607;50.934;6.934;2023-06-10T03:08:41;12.93;;;11.30;;
5175;SDS011;2607;50.934;6.934;2023-06-10T03:11:07;10.67;;;9.43;;
5175;SDS011;2607;50.934;6.934;2023-06-10T03:13:33;10.43;;;9.43;;
5175;SDS011;2607;50.934;6.934;2023-06-10T03:15:58;10.40;;;9.33;;
5175;SDS011;2607;50.934;6.934;2023-06-10T03:18:25;9.90;;;9.10;;
5175;SDS011;2607;50.934;6.934;2023-06-10T03:20:52;11.07;;;9.63;;
5175;SDS011;2607;50.934;6.934;2023-06-10T03:23:17;11.03;;;9.87;;
5175;SDS011;2607;50.934;6.934;2023-06-10T03:25:43;10.10;;;9.17;;
5175;SDS011;2607;50.934;6.934;2023-06-10T03:28:10;10.43;;;9.27;;
5175;SDS011;2607;50.934;6.934;2023-06-10T03:30:35;12.50;;;9.10;;
5175;SDS011;2607;50.934;6.934;2023-06-10T03:33:01;10.80;;;9.30;;
5175;SDS011;2607;50.934;6.934;2023-06-10T03:35:26;10.90;;;9.80;;
5175;SDS011;2607;50.934;6.934;2023-06-10T03:37:52;10.13;;;9.33;;
5175;SDS011;2607;50.934;6.934;2023-06-10T03:40:18;10.23;;;9.20;;
5175;SDS011;2607;50.934;6.934;2023-06-10T03:42:43;10.30;;;9.30;;
5175;SDS011;2607;50.934;6.934;2023-06-10T03:45:09;9.87;;;8.90;;
5175;SDS011;2607;50.934;6.934;2023-06-10T03:47:35;10.53;;;9.63;;
5175;SDS011;2607;50.934;6.934;2023-06-10T03:50:04;11.50;;;10.30;;
5175;SDS011;2607;50.934;6.934;2023-06-10T03:52:30;11.23;;;10.13;;
5175;SDS011;2607;50.934;6.934;2023-06-10T03:54:56;10.13;;;9.13;;
5175;SDS011;2607;50.934;6.934;2023-06-10T03:57:21;10.07;;;9.17;;
5175;SDS011;2607;50.934;6.934;2023-06-10T03:59:47;10.70;;;9.80;;
5175;SDS011;2607;50.934;6.934;2023-06-10T04:02:13;10.40;;;9.50;;
5175;SDS011;2607;50.934;6.934;2023-06-10T04:04:38;13.60;;;9.40;;
5175;SDS011;2607;50.934;6.934;2023-06-10T04:07:04;11.50;;;9.40;;
5175;SDS011;2607;50.934;6.934;2023-06-10T04:09:30;15.50;;;9.87;;
5175;SDS011;2607;50.934;6.934;2023-06-10T04:11:56;14.60;;;10.60;;
5175;SDS011;2607;50.934;6.934;2023-06-10T04:14:21;10.40;;;9.50;;
5175;SDS011;2607;50.934;6.934;2023-06-10T04:16:47;11.20;;;10.17;;
5175;SDS011;2607;50.934;6.934;2023-06-10T04:19:12;11.30;;;10.30;;
5175;SDS011;2607;50.934;6.934;2023-06-10T04:21:38;11.67;;;10.53;;
5175;SDS011;2607;50.934;6.934;2023-06-10T04:24:04;11.00;;;10.10;;
5175;SDS011;2607;50.934;6.934;2023-06-10T04:26:29;11.83;;;10.57;;
5175;SDS011;2607;50.934;6.934;2023-06-10T04:28:55;10.80;;;9.80;;
5175;SDS011;2607;50.934;6.934;2023-06-10T04:31:20;11.50;;;10.40;;
5175;SDS011;2607;50.934;6.934;2023-06-10T04:33:46;11.67;;;10.63;;
5175;SDS011;2607;50.934;6.934;2023-06-10T04:36:12;14.00;;;10.00;;
5175;SDS011;2607;50.934;6.934;2023-06-10T04:38:37;10.13;;;8.93;;
5175;SDS011;2607;50.934;6.934;2023-06-10T04:41:03;11.37;;;10.20;;
5175;SDS011;2607;50.934;6.934;2023-06-10T04:43:29;18.73;;;9.80;;
5175;SDS011;2607;50.934;6.934;2023-06-10T04:45:55;12.40;;;9.47;;
5175;SDS011;2607;50.934;6.934;2023-06-10T04:48:21;11.03;;;10.03;;
5175;SDS011;2607;50.934;6.934;2023-06-10T04:50:48;10.67;;;9.67;;
5175;SDS011;2607;50.934;6.934;2023-06-10T04:53:15;11.33;;;10.20;;
5175;SDS011;2607;50.934;6.934;2023-06-10T04:55:41;10.40;;;9.50;;
5175;SDS011;2607;50.934;6.934;2023-06-10T04:58:07;10.87;;;9.87;;
5175;SDS011;2607;50.934;6.934;2023-06-10T05:00:32;10.97;;;9.97;;
5175;SDS011;2607;50.934;6.934;2023-06-10T05:02:58;11.20;;;9.87;;
5175;SDS011;2607;50.934;6.934;2023-06-10T05:05:23;10.73;;;9.63;;
5175;SDS011;2607;50.934;6.934;2023-06-10T05:07:49;10.67;;;9.70;;
5175;SDS011;2607;50.934;6.934;2023-06-10T05:10:14;10.10;;;9.20;;
5175;SDS011;2607;50.934;6.934;2023-06-10T05:12:40;10.27;;;9.30;;
5175;SDS011;2607;50.934;6.934;2023-06-10T05:15:06;12.00;;;8.97;;
5175;SDS011;2607;50.934;6.934;2023-06-10T05:17:32;10.80;;;8.87;;
5175;SDS011;2607;50.934;6.934;2023-06-10T05:19:59;9.30;;;8.57;;
5175;SDS011;2607;50.934;6.934;2023-06-10T05:22:25;9.97;;;8.00;;
5175;SDS011;2607;50.934;6.934;2023-06-10T05:24:52;8.93;;;8.13;;
5175;SDS011;2607;50.934;6.934;2023-06-10T05:27:18;9.57;;;8.70;;
5175;SDS011;2607;50.934;6.934;2023-06-10T05:29:43;8.80;;;8.10;;
5175;SDS011;2607;50.934;6.934;2023-06-10T05:32:10;9.37;;;8.30;;
5175;SDS011;2607;50.934;6.934;2023-06-10T05:34:36;9.63;;;8.73;;
5175;SDS011;2607;50.934;6.934;2023-06-10T05:37:01;9.53;;;8.60;;
5175;SDS011;2607;50.934;6.934;2023-06-10T05:39:27;8.50;;;7.70;;
5175;SDS011;2607;50.934;6.934;2023-06-10T05:41:53;9.03;;;8.23;;
5175;SDS011;2607;50.934;6.934;2023-06-10T05:44:18;9.20;;;8.40;;
5175;SDS011;2607;50.934;6.934;2023-06-10T05:46:44;10.20;;;9.23;;
5175;SDS011;2607;50.934;6.934;2023-06-10T05:49:10;10.67;;;9.63;;
5175;SDS011;2607;50.934;6.934;2023-06-10T05:51:35;9.87;;;8.93;;
5175;SDS011;2607;50.934;6.934;2023-06-10T05:54:02;9.00;;;7.60;;
5175;SDS011;2607;50.934;6.934;2023-06-10T05:56:27;8.53;;;7.70;;
5175;SDS011;2607;50.934;6.934;2023-06-10T05:58:53;11.50;;;8.63;;
5175;SDS011;2607;50.934;6.934;2023-06-10T06:01:19;8.67;;;7.83;;
5175;SDS011;2607;50.934;6.934;2023-06-10T06:03:44;8.40;;;7.60;;
5175;SDS011;2607;50.934;6.934;2023-06-10T06:06:10;10.83;;;8.50;;
5175;SDS011;2607;50.934;6.934;2023-06-10T06:08:35;8.77;;;7.97;;
5175;SDS011;2607;50.934;6.934;2023-06-10T06:11:01;10.07;;;9.17;;
5175;SDS011;2607;50.934;6.934;2023-06-10T06:13:26;9.33;;;8.20;;
5175;SDS011;2607;50.934;6.934;2023-06-10T06:15:52;9.20;;;7.43;;
5175;SDS011;2607;50.934;6.934;2023-06-10T06:18:18;8.27;;;7.57;;
5175;SDS011;2607;50.934;6.934;2023-06-10T06:20:43;8.90;;;8.00;;
5175;SDS011;2607;50.934;6.934;2023-06-10T06:23:09;9.63;;;8.73;;
5175;SDS011;2607;50.934;6.934;2023-06-10T06:25:36;8.70;;;7.00;;
5175;SDS011;2607;50.934;6.934;2023-06-10T06:28:05;7.80;;;7.20;;
5175;SDS011;2607;50.934;6.934;2023-06-10T06:30:31;9.63;;;7.07;;
5175;SDS011;2607;50.934;6.934;2023-06-10T06:32:57;7.33;;;6.73;;
5175;SDS011;2607;50.934;6.934;2023-06-10T06:35:22;7.00;;;6.40;;
5175;SDS011;2607;50.934;6.934;2023-06-10T06:37:48;6.70;;;6.20;;
5175;SDS011;2607;50.934;6.934;2023-06-10T06:40:13;9.70;;;8.80;;
5175;SDS011;2607;50.934;6.934;2023-06-10T06:42:39;7.63;;;6.90;;
5175;SDS011;2607;50.934;6.934;2023-06-10T06:45:05;16.90;;;12.70;;
5175;SDS011;2607;50.934;6.934;2023-06-10T06:47:31;27.23;;;21.40;;
5175;SDS011;2607;50.934;6.934;2023-06-10T06:49:56;20.57;;;15.07;;
5175;SDS011;2607;50.934;6.934;2023-06-10T06:52:22;14.43;;;11.50;;
5175;SDS011;2607;50.934;6.934;2023-06-10T06:54:47;8.50;;;7.60;;
5175;SDS011;2607;50.934;6.934;2023-06-10T06:57:13;8.83;;;7.37;;
5175;SDS011;2607;50.934;6.934;2023-06-10T06:59:39;7.67;;;6.90;;
5175;SDS011;2607;50.934;6.934;2023-06-10T07:02:05;10.93;;;9.87;;
5175;SDS011;2607;50.934;6.934;2023-06-10T07:04:31;10.50;;;9.60;;
5175;SDS011;2607;50.934;6.934;2023-06-10T07:06:56;9.00;;;8.20;;
5175;SDS011;2607;50.934;6.934;2023-06-10T07:09:22;10.10;;;7.53;;
5175;SDS011;2607;50.934;6.934;2023-06-10T07:11:47;7.80;;;7.20;;
5175;SDS011;2607;50.934;6.934;2023-06-10T07:14:13;9.30;;;8.40;;
5175;SDS011;2607;50.934;6.934;2023-06-10T07:16:38;7.97;;;7.27;;
5175;SDS011;2607;50.934;6.934;2023-06-10T07:19:04;7.63;;;7.03;;
5175;SDS011;2607;50.934;6.934;2023-06-10T07:21:30;7.80;;;6.80;;
5175;SDS011;2607;50.934;6.934;2023-06-10T07:23:55;7.20;;;6.30;;
5175;SDS011;2607;50.934;6.934;2023-06-10T07:26:22;10.00;;;8.83;;
5175;SDS011;2607;50.934;6.934;2023-06-10T07:28:47;7.30;;;6.60;;
5175;SDS011;2607;50.934;6.934;2023-06-10T07:31:13;7.97;;;6.60;;
5175;SDS011;2607;50.934;6.934;2023-06-10T07:33:39;7.43;;;6.73;;
5175;SDS011;2607;50.934;6.934;2023-06-10T07:36:05;8.63;;;6.37;;
5175;SDS011;2607;50.934;6.934;2023-06-10T07:38:31;7.33;;;6.63;;
5175;SDS011;2607;50.934;6.934;2023-06-10T07:40:57;9.03;;;7.87;;
5175;SDS011;2607;50.934;6.934;2023-06-10T07:43:23;11.27;;;7.50;;
5175;SDS011;2607;50.934;6.934;2023-06-10T07:45:49;11.17;;;9.60;;
5175;SDS011;2607;50.934;6.934;2023-06-10T07:48:15;7.77;;;6.97;;
5175;SDS011;2607;50.934;6.934;2023-06-10T07:50:41;12.23;;;10.13;;
5175;SDS011;2607;50.934;6.934;2023-06-10T07:53:06;12.40;;;8.23;;
5175;SDS011;2607;50.934;6.934;2023-06-10T07:55:32;10.17;;;9.13;;
5175;SDS011;2607;50.934;6.934;2023-06-10T07:57:57;8.77;;;7.97;;
5175;SDS011;2607;50.934;6.934;2023-06-10T08:00:23;8.43;;;7.73;;
5175;SDS011;2607;50.934;6.934;2023-06-10T08:02:48;8.63;;;7.83;;
5175;SDS011;2607;50.934;6.934;2023-06-10T08:05:15;31.30;;;22.17;;
5175;SDS011;2607;50.934;6.934;2023-06-10T08:07:41;9.30;;;8.33;;
5175;SDS011;2607;50.934;6.934;2023-06-10T08:10:07;8.70;;;7.67;;
5175;SDS011;2607;50.934;6.934;2023-06-10T08:12:33;8.87;;;7.97;;
5175;SDS011;2607;50.934;6.934;2023-06-10T08:14:59;9.77;;;8.87;;
5175;SDS011;2607;50.934;6.934;2023-06-10T08:17:25;15.70;;;12.13;;
5175;SDS011;2607;50.934;6.934;2023-06-10T08:19:51;17.10;;;12.43;;
5175;SDS011;2607;50.934;6.934;2023-06-10T08:22:17;14.13;;;11.60;;
5175;SDS011;2607;50.934;6.934;2023-06-10T08:24:42;10.60;;;9.57;;
5175;SDS011;2607;50.934;6.934;2023-06-10T08:27:08;17.27;;;15.10;;
5175;SDS011;2607;50.934;6.934;2023-06-10T08:29:33;13.10;;;11.73;;
5175;SDS011;2607;50.934;6.934;2023-06-10T08:31:59;16.00;;;13.33;;
5175;SDS011;2607;50.934;6.934;2023-06-10T08:34:25;12.67;;;10.13;;
5175;SDS011;2607;50.934;6.934;2023-06-10T08:36:51;10.17;;;9.17;;
5175;SDS011;2607;50.934;6.934;2023-06-10T08:39:18;15.23;;;11.67;;
5175;SDS011;2607;50.934;6.934;2023-06-10T08:41:45;9.63;;;8.80;;
5175;SDS011;2607;50.934;6.934;2023-06-10T08:44:28;10.63;;;8.93;;
5175;SDS011;2607;50.934;6.934;2023-06-10T08:47:01;11.50;;;9.73;;
5175;SDS011;2607;50.934;6.934;2023-06-10T08:49:41;33.70;;;27.03;;
5175;SDS011;2607;50.934;6.934;2023-06-10T08:52:08;13.80;;;12.40;;
5175;SDS011;2607;50.934;6.934;2023-06-10T08:54:40;21.13;;;14.70;;
5175;SDS011;2607;50.934;6.934;2023-06-10T08:57:09;14.40;;;10.17;;
5175;SDS011;2607;50.934;6.934;2023-06-10T08:59:34;15.03;;;13.43;;
5175;SDS011;2607;50.934;6.934;2023-06-10T09:02:01;11.73;;;10.53;;
5175;SDS011;2607;50.934;6.934;2023-06-10T09:04:29;13.00;;;9.20;;
5175;SDS011;2607;50.934;6.934;2023-06-10T09:06:55;20.27;;;17.23;;
5175;SDS011;2607;50.934;6.934;2023-06-10T09:09:22;11.10;;;9.20;;
5175;SDS011;2607;50.934;6.934;2023-06-10T09:11:48;12.50;;;10.83;;
5175;SDS011;2607;50.934;6.934;2023-06-10T09:14:14;15.13;;;12.50;;
5175;SDS011;2607;50.934;6.934;2023-06-10T09:16:41;12.97;;;11.30;;
5175;SDS011;2607;50.934;6.934;2023-06-10T09:19:07;15.33;;;13.33;;
5175;SDS011;2607;50.934;6.934;2023-06-10T09:21:33;29.37;;;24.27;;
5175;SDS011;2607;50.934;6.934;2023-06-10T09:24:00;12.97;;;11.33;;
5175;SDS011;2607;50.934;6.934;2023-06-10T09:26:29;15.67;;;11.83;;
5175;SDS011;2607;50.934;6.934;2023-06-10T09:29:04;11.70;;;10.50;;
5175;SDS011;2607;50.934;6.934;2023-06-10T09:31:31;11.07;;;9.53;;
5175;SDS011;2607;50.934;6.934;2023-06-10T09:34:12;11.83;;;10.70;;
5175;SDS011;2607;50.934;6.934;2023-06-10T09:36:39;26.17;;;20.07;;
5175;SDS011;2607;50.934;6.934;2023-06-10T09:39:12;12.30;;;10.37;;
5175;SDS011;2607;50.934;6.934;2023-06-10T09:41:42;10.70;;;9.67;;
5175;SDS011;2607;50.934;6.934;2023-06-10T09:44:12;10.07;;;8.47;;
5175;SDS011;2607;50.934;6.934;2023-06-10T09:46:39;37.07;;;27.07;;
5175;SDS011;2607;50.934;6.934;2023-06-10T09:49:05;50.50;;;39.23;;
5175;SDS011;2607;50.934;6.934;2023-06-10T09:51:30;46.53;;;37.23;;
5175;SDS011;2607;50.934;6.934;2023-06-10T09:53:56;154.20;;;114.33;;
5175;SDS011;2607;50.934;6.934;2023-06-10T09:56:32;43.37;;;35.57;;
5175;SDS011;2607;50.934;6.934;2023-06-10T09:58:59;73.90;;;55.13;;
5175;SDS011;2607;50.934;6.934;2023-06-10T10:01:24;89.93;;;67.93;;
5175;SDS011;2607;50.934;6.934;2023-06-10T10:03:50;196.10;;;143.13;;
5175;SDS011;2607;50.934;6.934;2023-06-10T10:06:16;56.40;;;44.43;;
5175;SDS011;2607;50.934;6.934;2023-06-10T10:08:47;110.57;;;82.17;;
5175;SDS011;2607;50.934;6.934;2023-06-10T10:11:18;82.87;;;63.50;;
5175;SDS011;2607;50.934;6.934;2023-06-10T10:13:47;103.30;;;78.17;;
5175;SDS011;2607;50.934;6.934;2023-06-10T10:16:15;109.67;;;84.40;;
5175;SDS011;2607;50.934;6.934;2023-06-10T10:18:43;15.63;;;14.00;;
5175;SDS011;2607;50.934;6.934;2023-06-10T10:21:14;9.73;;;8.93;;
5175;SDS011;2607;50.934;6.934;2023-06-10T10:23:50;8.60;;;7.80;;
5175;SDS011;2607;50.934;6.934;2023-06-10T10:26:33;7.57;;;6.87;;
5175;SDS011;2607;50.934;6.934;2023-06-10T10:31:26;7.43;;;6.90;;
5175;SDS011;2607;50.934;6.934;2023-06-10T10:33:55;12.67;;;10.63;;
5175;SDS011;2607;50.934;6.934;2023-06-10T10:36:24;10.90;;;9.40;;
5175;SDS011;2607;50.934;6.934;2023-06-10T10:38:51;11.63;;;9.37;;
5175;SDS011;2607;50.934;6.934;2023-06-10T10:41:16;10.43;;;8.03;;
5175;SDS011;2607;50.934;6.934;2023-06-10T10:43:44;13.90;;;11.10;;
5175;SDS011;2607;50.934;6.934;2023-06-10T10:46:12;24.67;;;15.17;;
5175;SDS011;2607;50.934;6.934;2023-06-10T10:48:39;12.30;;;11.00;;
5175;SDS011;2607;50.934;6.934;2023-06-10T10:51:06;22.87;;;15.00;;
5175;SDS011;2607;50.934;6.934;2023-06-10T10:53:32;22.60;;;15.33;;
5175;SDS011;2607;50.934;6.934;2023-06-10T10:56:04;14.80;;;10.97;;
5175;SDS011;2607;50.934;6.934;2023-06-10T10:58:37;26.43;;;14.13;;
5175;SDS011;2607;50.934;6.934;2023-06-10T11:01:13;37.37;;;21.87;;
5175;SDS011;2607;50.934;6.934;2023-06-10T11:03:48;16.20;;;12.30;;
5175;SDS011;2607;50.934;6.934;2023-06-10T11:06:14;10.27;;;9.17;;
5175;SDS011;2607;50.934;6.934;2023-06-10T11:11:19;8.17;;;7.37;;
5175;SDS011;2607;50.934;6.934;2023-06-10T11:16:38;8.97;;;7.67;;
5175;SDS011;2607;50.934;6.934;2023-06-10T11:19:05;10.63;;;7.10;;
5175;SDS011;2607;50.934;6.934;2023-06-10T11:21:30;10.83;;;8.47;;
5175;SDS011;2607;50.934;6.934;2023-06-10T11:23:57;16.73;;;9.10;;
5175;SDS011;2607;50.934;6.934;2023-06-10T11:31:22;8.70;;;5.82;;
5175;SDS011;2607;50.934;6.934;2023-06-10T11:33:56;10.10;;;7.87;;
5175;SDS011;2607;50.934;6.934;2023-06-10T11:36:23;7.10;;;6.40;;
5175;SDS011;2607;50.934;6.934;2023-06-10T11:38:52;7.22;;;6.50;;
5175;SDS011;2607;50.934;6.934;2023-06-10T11:41:20;19.48;;;9.40;;
5175;SDS011;2607;50.934;6.934;2023-06-10T11:43:46;9.90;;;6.18;;
5175;SDS011;2607;50.934;6.934;2023-06-10T11:46:12;7.28;;;6.55;;
5175;SDS011;2607;50.934;6.934;2023-06-10T11:48:38;7.18;;;6.57;;
5175;SDS011;2607;50.934;6.934;2023-06-10T11:51:07;9.93;;;6.53;;
5175;SDS011;2607;50.934;6.934;2023-06-10T11:53:33;6.60;;;6.13;;
5175;SDS011;2607;50.934;6.934;2023-06-10T11:55:59;6.50;;;5.90;;
5175;SDS011;2607;50.934;6.934;2023-06-10T11:58:25;5.93;;;5.43;;
5175;SDS011;2607;50.934;6.934;2023-06-10T12:00:51;6.43;;;5.60;;
5175;SDS011;2607;50.934;6.934;2023-06-10T12:03:19;9.27;;;6.35;;
5175;SDS011;2607;50.934;6.934;2023-06-10T12:06:03;6.82;;;6.43;;
5175;SDS011;2607;50.934;6.934;2023-06-10T12:08:29;6.13;;;5.72;;
5175;SDS011;2607;50.934;6.934;2023-06-10T12:10:56;7.10;;;6.40;;
5175;SDS011;2607;50.934;6.934;2023-06-10T12:13:22;7.90;;;7.30;;
5175;SDS011;2607;50.934;6.934;2023-06-10T12:15:51;8.35;;;7.50;;
5175;SDS011;2607;50.934;6.934;2023-06-10T12:18:17;18.90;;;11.05;;
5175;SDS011;2607;50.934;6.934;2023-06-10T12:20:43;10.90;;;8.07;;
5175;SDS011;2607;50.934;6.934;2023-06-10T12:23:10;8.85;;;7.95;;
5175;SDS011;2607;50.934;6.934;2023-06-10T12:25:36;11.30;;;6.43;;
5175;SDS011;2607;50.934;6.934;2023-06-10T12:28:03;12.52;;;6.30;;
5175;SDS011;2607;50.934;6.934;2023-06-10T12:30:29;6.85;;;6.25;;
5175;SDS011;2607;50.934;6.934;2023-06-10T12:32:56;7.55;;;6.85;;
5175;SDS011;2607;50.934;6.934;2023-06-10T12:35:22;15.18;;;8.02;;
5175;SDS011;2607;50.934;6.934;2023-06-10T12:38:02;6.88;;;6.25;;
5175;SDS011;2607;50.934;6.934;2023-06-10T12:40:36;6.72;;;6.22;;
5175;SDS011;2607;50.934;6.934;2023-06-10T12:43:05;8.15;;;7.43;;
5175;SDS011;2607;50.934;6.934;2023-06-10T12:45:31;9.25;;;6.28;;
5175;SDS011;2607;50.934;6.934;2023-06-10T12:48:05;7.30;;;5.32;;
5175;SDS011;2607;50.934;6.934;2023-06-10T12:50:34;6.38;;;5.88;;
5175;SDS011;2607;50.934;6.934;2023-06-10T12:53:02;5.50;;;5.00;;
5175;SDS011;2607;50.934;6.934;2023-06-10T12:55:28;5.72;;;5.32;;
5175;SDS011;2607;50.934;6.934;2023-06-10T12:57:53;7.50;;;6.90;;
5175;SDS011;2607;50.934;6.934;2023-06-10T13:00:20;7.18;;;6.70;;
5175;SDS011;2607;50.934;6.934;2023-06-10T13:02:47;6.43;;;6.03;;
5175;SDS011;2607;50.934;6.934;2023-06-10T13:05:14;5.38;;;5.07;;
5175;SDS011;2607;50.934;6.934;2023-06-10T13:07:39;6.88;;;6.18;;
5175;SDS011;2607;50.934;6.934;2023-06-10T13:10:06;6.55;;;6.03;;
5175;SDS011;2607;50.934;6.934;2023-06-10T13:12:32;5.88;;;5.40;;
5175;SDS011;2607;50.934;6.934;2023-06-10T13:14:58;4.90;;;4.70;;
5175;SDS011;2607;50.934;6.934;2023-06-10T13:17:23;9.20;;;7.05;;
5175;SDS011;2607;50.934;6.934;2023-06-10T13:19:50;13.32;;;9.77;;
5175;SDS011;2607;50.934;6.934;2023-06-10T13:22:15;6.57;;;5.90;;
5175;SDS011;2607;50.934;6.934;2023-06-10T13:24:41;5.80;;;5.40;;
5175;SDS011;2607;50.934;6.934;2023-06-10T13:27:08;5.60;;;5.15;;
5175;SDS011;2607;50.934;6.934;2023-06-10T13:29:34;10.45;;;7.45;;
5175;SDS011;2607;50.934;6.934;2023-06-10T13:31:59;5.53;;;5.20;;
5175;SDS011;2607;50.934;6.934;2023-06-10T13:34:25;7.47;;;6.88;;
5175;SDS011;2607;50.934;6.934;2023-06-10T13:36:50;7.50;;;6.90;;
5175;SDS011;2607;50.934;6.934;2023-06-10T13:39:16;6.25;;;5.65;;
5175;SDS011;2607;50.934;6.934;2023-06-10T13:41:42;5.63;;;5.13;;
5175;SDS011;2607;50.934;6.934;2023-06-10T13:44:08;4.80;;;4.60;;
5175;SDS011;2607;50.934;6.934;2023-06-10T13:46:33;5.75;;;5.38;;
5175;SDS011;2607;50.934;6.934;2023-06-10T13:48:59;7.50;;;5.70;;
5175;SDS011;2607;50.934;6.934;2023-06-10T13:51:24;30.75;;;10.57;;
5175;SDS011;2607;50.934;6.934;2023-06-10T13:53:50;6.30;;;5.18;;
5175;SDS011;2607;50.934;6.934;2023-06-10T13:56:17;5.43;;;4.93;;
5175;SDS011;2607;50.934;6.934;2023-06-10T13:58:43;5.55;;;5.18;;
5175;SDS011;2607;50.934;6.934;2023-06-10T14:01:08;6.25;;;5.63;;
5175;SDS011;2607;50.934;6.934;2023-06-10T14:03:34;10.35;;;6.15;;
5175;SDS011;2607;50.934;6.934;2023-06-10T14:05:59;6.45;;;5.85;;
5175;SDS011;2607;50.934;6.934;2023-06-10T14:08:25;6.10;;;5.18;;
5175;SDS011;2607;50.934;6.934;2023-06-10T14:10:51;5.90;;;5.18;;
5175;SDS011;2607;50.934;6.934;2023-06-10T14:13:17;5.47;;;5.03;;
5175;SDS011;2607;50.934;6.934;2023-06-10T14:15:43;5.47;;;4.97;;
5175;SDS011;2607;50.934;6.934;2023-06-10T14:18:08;5.95;;;5.35;;
5175;SDS011;2607;50.934;6.934;2023-06-10T14:20:34;12.25;;;6.93;;
5175;SDS011;2607;50.934;6.934;2023-06-10T14:23:00;7.83;;;5.30;;
5175;SDS011;2607;50.934;6.934;2023-06-10T14:25:25;6.28;;;5.07;;
5175;SDS011;2607;50.934;6.934;2023-06-10T14:27:51;5.72;;;5.30;;
5175;SDS011;2607;50.934;6.934;2023-06-10T14:30:16;5.47;;;4.97;;
5175;SDS011;2607;50.934;6.934;2023-06-10T14:32:42;7.07;;;6.38;;
5175;SDS011;2607;50.934;6.934;2023-06-10T14:35:08;35.92;;;18.95;;
5175;SDS011;2607;50.934;6.934;2023-06-10T14:37:34;102.18;;;42.90;;
5175;SDS011;2607;50.934;6.934;2023-06-10T14:40:00;17.90;;;11.70;;
5175;SDS011;2607;50.934;6.934;2023-06-10T14:42:25;8.13;;;7.50;;
5175;SDS011;2607;50.934;6.934;2023-06-10T14:44:51;10.80;;;6.40;;
5175;SDS011;2607;50.934;6.934;2023-06-10T14:47:16;13.47;;;7.80;;
5175;SDS011;2607;50.934;6.934;2023-06-10T14:49:42;6.27;;;5.77;;
5175;SDS011;2607;50.934;6.934;2023-06-10T14:52:08;5.70;;;5.37;;
5175;SDS011;2607;50.934;6.934;2023-06-10T14:54:34;9.83;;;7.50;;
5175;SDS011;2607;50.934;6.934;2023-06-10T14:57:00;11.00;;;5.70;;
5175;SDS011;2607;50.934;6.934;2023-06-10T14:59:25;5.90;;;5.40;;
5175;SDS011;2607;50.934;6.934;2023-06-10T15:01:51;5.18;;;4.88;;
5175;SDS011;2607;50.934;6.934;2023-06-10T15:04:17;5.32;;;4.93;;
5175;SDS011;2607;50.934;6.934;2023-06-10T15:06:42;16.03;;;5.80;;
5175;SDS011;2607;50.934;6.934;2023-06-10T15:09:08;6.63;;;5.72;;
5175;SDS011;2607;50.934;6.934;2023-06-10T15:11:34;8.90;;;5.20;;
5175;SDS011;2607;50.934;6.934;2023-06-10T15:13:59;5.97;;;4.83;;
5175;SDS011;2607;50.934;6.934;2023-06-10T15:16:25;5.23;;;4.90;;
5175;SDS011;2607;50.934;6.934;2023-06-10T15:18:50;25.20;;;7.63;;
5175;SDS011;2607;50.934;6.934;2023-06-10T15:21:16;10.87;;;6.80;;